Axis, AL (36505)

3:47 AM CST on February 12, 2016 (GMT -0600)
APRSWXNET | | Change Station
CLOSE
Current Station
Personal Weather Station
Location: Chunchula, AL
Elevation: 269 ft
Nearby Weather Stations

Elev 269 ft 30.98 °N, 88.12 °W | Updated 19 minutes ago

Partly Cloudy
Partly Cloudy
56 °F
Feels Like 56 °F
N
3
Wind Variable Wind from West
Gusts 8.0 mph

Today
High -- | Low -- °F
--% Chance of Precip.
Yesterday
High -- | Low -- °F
Precip. -- in
Pressure 30.17 in
Visibility 9.0 miles
Clouds Mostly Cloudy 600 ft
Dew Point 55 °F
Humidity 96%
Rainfall in
Snow Depth Not available.
6:36 AM 5:37 PM
Waxing Crescent, 19% visible
SPECI KMOB 120905Z AUTO 24007KT 9SM BKN006 14/14 A3017 RMK AO2 T01390139 TSNO
Pressure 30.17 in
Visibility 9.0 miles
Clouds Mostly Cloudy 600 ft
Dew Point 55 °F
Humidity 96%
Rainfall in
Snow Depth Not available.
6:36 AM 5:37 PM
Waxing Crescent, 19% visible
SPECI KMOB 120905Z AUTO 24007KT 9SM BKN006 14/14 A3017 RMK AO2 T01390139 TSNO

10-Day Weather Forecast

Almanac

Astronomy

Feb. 12, 2016 Rise Set
Actual Time
Civil Twilight
Nautical Twilight
Astronomical Twilight
Moon
Length of Visible Light
Length of Day
Tomorrow will be .
, % of the Moon is Illuminated

Today's Extremes

State Highs State Lows

Community

WunderPhotos

Upload Photos

1,892,286 photos uploaded!

WunderBlog® & News

Nearby

Air Quality

  Air Quality AQ Index Pollutant
Not available.

Snow Depth

Station Depth Elevation

Earthquake Activity

City Distance Mag. Time & Date
Minimum magnitude displayed is 2.5.

Coastal Water Temperatures

Place Temperature

Stations

Nearby Weather Stations

Station Location Temp. Windchill Dew Point Humidity Wind Precip. Elev Updated Type
                   

Watches & Warnings

There are currently no watches in effect.